sensor_id;sensor_type;location;lat;lon;timestamp;pressure;altitude;pressure_sealevel;temperature;humidity
62978;BME280;49073;42.352;23.808;2023-05-07T00:00:51;94956.13;;;8.29;84.60
62978;BME280;49073;42.352;23.808;2023-05-07T00:03:52;94959.75;;;8.25;84.04
62978;BME280;49073;42.352;23.808;2023-05-07T00:06:52;94974.22;;;8.15;83.87
62978;BME280;49073;42.352;23.808;2023-05-07T00:09:53;94974.47;;;8.22;83.06
62978;BME280;49073;42.352;23.808;2023-05-07T00:12:53;94970.16;;;8.18;82.66
62978;BME280;49073;42.352;23.808;2023-05-07T00:15:54;94979.00;;;8.09;83.07
62978;BME280;49073;42.352;23.808;2023-05-07T00:18:55;94977.75;;;8.07;83.40
62978;BME280;49073;42.352;23.808;2023-05-07T00:21:55;94984.91;;;7.94;84.35
62978;BME280;49073;42.352;23.808;2023-05-07T00:24:56;94978.09;;;8.05;84.70
62978;BME280;49073;42.352;23.808;2023-05-07T00:27:57;94974.97;;;7.91;84.59
62978;BME280;49073;42.352;23.808;2023-05-07T00:31:02;94978.75;;;8.02;84.46
62978;BME280;49073;42.352;23.808;2023-05-07T00:34:03;94976.72;;;7.86;85.18
62978;BME280;49073;42.352;23.808;2023-05-07T00:37:03;94977.38;;;7.83;85.42
62978;BME280;49073;42.352;23.808;2023-05-07T00:40:04;94987.69;;;7.97;85.09
62978;BME280;49073;42.352;23.808;2023-05-07T00:43:07;94991.44;;;7.84;84.84
62978;BME280;49073;42.352;23.808;2023-05-07T00:46:07;94987.66;;;7.85;85.09
62978;BME280;49073;42.352;23.808;2023-05-07T00:49:08;94992.09;;;7.81;85.67
62978;BME280;49073;42.352;23.808;2023-05-07T00:52:11;95000.00;;;8.02;85.84
62978;BME280;49073;42.352;23.808;2023-05-07T00:55:13;94994.63;;;7.90;86.71
62978;BME280;49073;42.352;23.808;2023-05-07T00:58:14;94994.25;;;8.00;87.25
62978;BME280;49073;42.352;23.808;2023-05-07T01:01:15;94999.13;;;8.10;87.36
62978;BME280;49073;42.352;23.808;2023-05-07T01:04:18;94994.41;;;8.28;87.21
62978;BME280;49073;42.352;23.808;2023-05-07T01:07:19;95003.91;;;8.29;89.07
62978;BME280;49073;42.352;23.808;2023-05-07T01:10:20;94995.28;;;8.33;90.28
62978;BME280;49073;42.352;23.808;2023-05-07T01:13:20;95005.78;;;8.29;90.42
62978;BME280;49073;42.352;23.808;2023-05-07T01:16:21;95000.38;;;8.25;90.21
62978;BME280;49073;42.352;23.808;2023-05-07T01:19:22;95007.88;;;8.23;89.82
62978;BME280;49073;42.352;23.808;2023-05-07T01:22:30;95004.22;;;8.28;89.61
62978;BME280;49073;42.352;23.808;2023-05-07T01:25:32;95010.88;;;8.22;89.55
62978;BME280;49073;42.352;23.808;2023-05-07T01:28:33;95005.78;;;8.29;89.59
62978;BME280;49073;42.352;23.808;2023-05-07T01:31:34;95003.69;;;8.35;89.47
62978;BME280;49073;42.352;23.808;2023-05-07T01:34:36;95007.41;;;8.55;89.97
62978;BME280;49073;42.352;23.808;2023-05-07T01:37:39;95004.31;;;8.65;90.03
62978;BME280;49073;42.352;23.808;2023-05-07T01:40:40;95013.03;;;8.53;91.17
62978;BME280;49073;42.352;23.808;2023-05-07T01:43:41;95004.03;;;8.45;91.71
62978;BME280;49073;42.352;23.808;2023-05-07T01:46:42;95007.72;;;8.66;91.61
62978;BME280;49073;42.352;23.808;2023-05-07T01:49:43;95006.16;;;8.65;91.51
62978;BME280;49073;42.352;23.808;2023-05-07T01:52:44;95008.84;;;8.52;92.04
62978;BME280;49073;42.352;23.808;2023-05-07T01:55:44;95011.72;;;8.59;91.93
62978;BME280;49073;42.352;23.808;2023-05-07T01:58:46;95009.38;;;8.83;91.80
62978;BME280;49073;42.352;23.808;2023-05-07T02:01:47;95002.41;;;8.78;92.39
62978;BME280;49073;42.352;23.808;2023-05-07T02:04:48;94994.34;;;8.75;93.83
62978;BME280;49073;42.352;23.808;2023-05-07T02:07:48;95000.75;;;8.86;93.76
62978;BME280;49073;42.352;23.808;2023-05-07T02:10:49;94994.97;;;8.96;94.19
62978;BME280;49073;42.352;23.808;2023-05-07T02:13:51;94986.44;;;9.03;93.97
62978;BME280;49073;42.352;23.808;2023-05-07T02:16:53;94971.94;;;9.00;94.52
62978;BME280;49073;42.352;23.808;2023-05-07T02:19:53;94971.25;;;9.03;94.66
62978;BME280;49073;42.352;23.808;2023-05-07T02:22:54;94972.38;;;9.15;94.42
62978;BME280;49073;42.352;23.808;2023-05-07T02:25:55;94963.81;;;9.22;94.31
62978;BME280;49073;42.352;23.808;2023-05-07T02:28:55;94959.03;;;9.27;93.97
62978;BME280;49073;42.352;23.808;2023-05-07T02:31:56;94946.69;;;9.35;93.73
62978;BME280;49073;42.352;23.808;2023-05-07T02:34:56;94955.31;;;9.44;92.76
62978;BME280;49073;42.352;23.808;2023-05-07T02:37:57;94959.84;;;9.44;92.58
62978;BME280;49073;42.352;23.808;2023-05-07T02:40:57;94957.44;;;9.39;92.74
62978;BME280;49073;42.352;23.808;2023-05-07T02:43:58;94954.81;;;9.26;93.02
62978;BME280;49073;42.352;23.808;2023-05-07T02:46:58;94948.44;;;9.15;93.58
62978;BME280;49073;42.352;23.808;2023-05-07T02:49:59;94940.75;;;9.26;93.65
62978;BME280;49073;42.352;23.808;2023-05-07T02:52:59;94950.63;;;9.25;93.79
62978;BME280;49073;42.352;23.808;2023-05-07T02:56:00;94950.25;;;9.27;94.27
62978;BME280;49073;42.352;23.808;2023-05-07T02:59:01;94950.66;;;9.41;93.19
62978;BME280;49073;42.352;23.808;2023-05-07T03:02:02;94945.81;;;9.31;93.85
62978;BME280;49073;42.352;23.808;2023-05-07T03:05:03;94945.56;;;9.49;93.53
62978;BME280;49073;42.352;23.808;2023-05-07T03:08:04;94947.41;;;9.48;93.47
62978;BME280;49073;42.352;23.808;2023-05-07T03:11:08;94944.00;;;9.48;93.70
62978;BME280;49073;42.352;23.808;2023-05-07T03:14:08;94952.19;;;9.42;94.45
62978;BME280;49073;42.352;23.808;2023-05-07T03:17:09;94948.53;;;9.47;94.56
62978;BME280;49073;42.352;23.808;2023-05-07T03:20:10;94947.53;;;9.52;94.42
62978;BME280;49073;42.352;23.808;2023-05-07T03:23:11;94945.22;;;9.09;95.89
62978;BME280;49073;42.352;23.808;2023-05-07T03:26:11;94946.66;;;9.19;96.91
62978;BME280;49073;42.352;23.808;2023-05-07T03:29:12;94939.44;;;9.20;96.92
62978;BME280;49073;42.352;23.808;2023-05-07T03:32:12;94943.16;;;9.31;96.08
62978;BME280;49073;42.352;23.808;2023-05-07T03:35:13;94941.19;;;9.28;95.71
62978;BME280;49073;42.352;23.808;2023-05-07T03:38:14;94948.84;;;9.29;95.40
62978;BME280;49073;42.352;23.808;2023-05-07T03:41:15;94955.78;;;9.34;95.22
62978;BME280;49073;42.352;23.808;2023-05-07T03:44:17;94941.34;;;9.19;95.33
62978;BME280;49073;42.352;23.808;2023-05-07T03:47:18;94948.91;;;9.33;94.94
62978;BME280;49073;42.352;23.808;2023-05-07T03:50:19;94943.78;;;9.40;93.87
62978;BME280;49073;42.352;23.808;2023-05-07T03:53:20;94944.81;;;9.36;93.43
62978;BME280;49073;42.352;23.808;2023-05-07T03:56:20;94949.53;;;9.42;92.69
62978;BME280;49073;42.352;23.808;2023-05-07T03:59:21;94955.44;;;9.36;92.53
62978;BME280;49073;42.352;23.808;2023-05-07T04:02:22;94952.69;;;9.32;92.56
62978;BME280;49073;42.352;23.808;2023-05-07T04:05:23;94959.56;;;9.33;92.79
62978;BME280;49073;42.352;23.808;2023-05-07T04:08:24;94969.00;;;9.30;93.28
62978;BME280;49073;42.352;23.808;2023-05-07T04:11:24;94969.78;;;9.19;93.66
62978;BME280;49073;42.352;23.808;2023-05-07T04:14:25;94966.25;;;9.14;94.39
62978;BME280;49073;42.352;23.808;2023-05-07T04:17:26;94963.56;;;9.27;94.31
62978;BME280;49073;42.352;23.808;2023-05-07T04:20:26;94962.38;;;9.53;93.20
62978;BME280;49073;42.352;23.808;2023-05-07T04:23:27;94968.84;;;9.39;93.46
62978;BME280;49073;42.352;23.808;2023-05-07T04:26:27;94975.13;;;9.47;93.83
62978;BME280;49073;42.352;23.808;2023-05-07T04:29:28;94965.47;;;9.26;94.51
62978;BME280;49073;42.352;23.808;2023-05-07T04:32:29;94971.88;;;9.25;95.81
62978;BME280;49073;42.352;23.808;2023-05-07T04:35:30;94977.50;;;9.36;95.48
62978;BME280;49073;42.352;23.808;2023-05-07T04:38:31;94982.78;;;9.49;95.32
62978;BME280;49073;42.352;23.808;2023-05-07T04:41:31;94977.84;;;9.63;94.95
62978;BME280;49073;42.352;23.808;2023-05-07T04:44:32;94981.31;;;9.51;95.10
62978;BME280;49073;42.352;23.808;2023-05-07T04:47:33;94978.09;;;9.58;95.54
62978;BME280;49073;42.352;23.808;2023-05-07T04:50:33;94971.41;;;9.64;95.63
62978;BME280;49073;42.352;23.808;2023-05-07T04:53:34;94976.38;;;9.66;95.76
62978;BME280;49073;42.352;23.808;2023-05-07T04:56:34;94966.97;;;9.68;96.00
62978;BME280;49073;42.352;23.808;2023-05-07T04:59:35;94968.06;;;9.67;96.87
62978;BME280;49073;42.352;23.808;2023-05-07T05:02:35;94972.72;;;9.70;97.74
62978;BME280;49073;42.352;23.808;2023-05-07T05:05:36;94981.75;;;9.82;96.90
62978;BME280;49073;42.352;23.808;2023-05-07T05:08:37;94972.63;;;9.67;97.44
62978;BME280;49073;42.352;23.808;2023-05-07T05:11:38;94979.44;;;9.80;98.12
62978;BME280;49073;42.352;23.808;2023-05-07T05:14:39;94972.84;;;9.90;97.85
62978;BME280;49073;42.352;23.808;2023-05-07T05:17:39;94978.97;;;10.07;97.53
62978;BME280;49073;42.352;23.808;2023-05-07T05:20:40;94979.84;;;10.11;98.58
62978;BME280;49073;42.352;23.808;2023-05-07T05:23:40;94977.16;;;10.27;99.17
62978;BME280;49073;42.352;23.808;2023-05-07T05:26:41;94981.06;;;10.29;98.61
62978;BME280;49073;42.352;23.808;2023-05-07T05:29:41;94977.09;;;10.39;98.55
62978;BME280;49073;42.352;23.808;2023-05-07T05:32:42;94970.56;;;10.37;98.28
62978;BME280;49073;42.352;23.808;2023-05-07T05:35:42;94970.00;;;10.43;99.54
62978;BME280;49073;42.352;23.808;2023-05-07T05:38:43;94970.16;;;10.51;99.64
62978;BME280;49073;42.352;23.808;2023-05-07T05:41:44;94977.31;;;10.62;100.00
62978;BME280;49073;42.352;23.808;2023-05-07T05:44:45;94982.50;;;10.91;99.61
62978;BME280;49073;42.352;23.808;2023-05-07T05:47:45;94971.63;;;11.00;98.95
62978;BME280;49073;42.352;23.808;2023-05-07T05:50:46;94971.09;;;11.10;98.36
62978;BME280;49073;42.352;23.808;2023-05-07T05:53:46;94971.81;;;11.27;97.08
62978;BME280;49073;42.352;23.808;2023-05-07T05:56:47;94967.31;;;11.50;96.98
62978;BME280;49073;42.352;23.808;2023-05-07T05:59:48;94969.44;;;11.61;95.66
62978;BME280;49073;42.352;23.808;2023-05-07T06:02:48;94958.47;;;11.66;93.35
62978;BME280;49073;42.352;23.808;2023-05-07T06:05:49;94971.59;;;11.75;92.12
62978;BME280;49073;42.352;23.808;2023-05-07T06:08:50;94973.81;;;11.92;92.72
62978;BME280;49073;42.352;23.808;2023-05-07T06:11:51;94970.31;;;12.08;90.25
62978;BME280;49073;42.352;23.808;2023-05-07T06:14:51;94965.25;;;12.26;89.19
62978;BME280;49073;42.352;23.808;2023-05-07T06:17:52;94957.72;;;12.32;87.34
62978;BME280;49073;42.352;23.808;2023-05-07T06:20:53;94969.00;;;12.45;84.58
62978;BME280;49073;42.352;23.808;2023-05-07T06:23:54;94954.13;;;12.44;83.29
62978;BME280;49073;42.352;23.808;2023-05-07T06:26:55;94954.38;;;12.62;84.30
62978;BME280;49073;42.352;23.808;2023-05-07T06:29:55;94949.25;;;12.76;83.48
62978;BME280;49073;42.352;23.808;2023-05-07T06:32:57;94954.81;;;12.94;82.72
62978;BME280;49073;42.352;23.808;2023-05-07T06:35:57;94953.81;;;13.03;82.50
62978;BME280;49073;42.352;23.808;2023-05-07T06:38:58;94945.72;;;13.30;82.22
62978;BME280;49073;42.352;23.808;2023-05-07T06:41:59;94953.13;;;13.40;81.47
62978;BME280;49073;42.352;23.808;2023-05-07T06:45:00;94953.28;;;13.51;82.06
62978;BME280;49073;42.352;23.808;2023-05-07T06:48:01;94945.13;;;13.74;81.55
62978;BME280;49073;42.352;23.808;2023-05-07T06:51:01;94951.75;;;13.88;76.96
62978;BME280;49073;42.352;23.808;2023-05-07T06:54:02;94946.81;;;13.90;77.95
62978;BME280;49073;42.352;23.808;2023-05-07T06:57:04;94944.69;;;14.10;79.29
62978;BME280;49073;42.352;23.808;2023-05-07T07:00:06;94940.94;;;14.18;80.04
62978;BME280;49073;42.352;23.808;2023-05-07T07:03:09;94939.25;;;14.48;81.09
62978;BME280;49073;42.352;23.808;2023-05-07T07:06:09;94946.69;;;14.69;77.93
62978;BME280;49073;42.352;23.808;2023-05-07T07:09:10;94948.66;;;14.72;78.08
62978;BME280;49073;42.352;23.808;2023-05-07T07:12:11;94944.53;;;14.82;78.95
62978;BME280;49073;42.352;23.808;2023-05-07T07:15:13;94940.69;;;14.83;77.02
62978;BME280;49073;42.352;23.808;2023-05-07T07:18:13;94948.47;;;15.03;77.02
62978;BME280;49073;42.352;23.808;2023-05-07T07:21:14;94945.03;;;15.06;77.62
62978;BME280;49073;42.352;23.808;2023-05-07T07:24:15;94940.09;;;15.11;76.63
62978;BME280;49073;42.352;23.808;2023-05-07T07:27:21;94935.50;;;15.19;77.33
62978;BME280;49073;42.352;23.808;2023-05-07T07:30:22;94935.97;;;15.32;77.65
62978;BME280;49073;42.352;23.808;2023-05-07T07:33:22;94933.38;;;15.57;78.03
62978;BME280;49073;42.352;23.808;2023-05-07T07:36:23;94931.09;;;15.74;75.75
62978;BME280;49073;42.352;23.808;2023-05-07T07:39:23;94926.88;;;15.62;73.74
62978;BME280;49073;42.352;23.808;2023-05-07T07:42:23;94931.91;;;15.82;74.18
62978;BME280;49073;42.352;23.808;2023-05-07T07:45:24;94929.19;;;15.85;70.64
62978;BME280;49073;42.352;23.808;2023-05-07T07:48:25;94935.41;;;15.97;70.01
62978;BME280;49073;42.352;23.808;2023-05-07T07:51:25;94935.81;;;16.17;71.44
62978;BME280;49073;42.352;23.808;2023-05-07T07:54:26;94931.97;;;16.22;70.33
62978;BME280;49073;42.352;23.808;2023-05-07T07:57:27;94935.44;;;16.33;69.70
62978;BME280;49073;42.352;23.808;2023-05-07T08:00:27;94927.38;;;16.33;66.43
62978;BME280;49073;42.352;23.808;2023-05-07T08:03:28;94932.00;;;16.58;66.21
62978;BME280;49073;42.352;23.808;2023-05-07T08:06:32;94926.19;;;16.67;65.13
62978;BME280;49073;42.352;23.808;2023-05-07T08:09:32;94925.06;;;16.71;64.48
62978;BME280;49073;42.352;23.808;2023-05-07T08:12:32;94926.91;;;16.96;66.41
62978;BME280;49073;42.352;23.808;2023-05-07T08:15:33;94928.06;;;17.17;63.01
62978;BME280;49073;42.352;23.808;2023-05-07T08:18:33;94929.91;;;17.35;63.34
62978;BME280;49073;42.352;23.808;2023-05-07T08:21:34;94916.47;;;17.27;62.75
62978;BME280;49073;42.352;23.808;2023-05-07T08:24:35;94915.66;;;17.41;61.12
62978;BME280;49073;42.352;23.808;2023-05-07T08:27:35;94917.88;;;17.57;57.46
62978;BME280;49073;42.352;23.808;2023-05-07T08:30:36;94925.19;;;17.60;59.35
62978;BME280;49073;42.352;23.808;2023-05-07T08:33:36;94912.06;;;17.66;60.35
62978;BME280;49073;42.352;23.808;2023-05-07T08:36:38;94908.53;;;17.80;54.72
62978;BME280;49073;42.352;23.808;2023-05-07T08:39:39;94905.34;;;17.96;57.20
62978;BME280;49073;42.352;23.808;2023-05-07T08:42:39;94914.78;;;18.30;59.37
62978;BME280;49073;42.352;23.808;2023-05-07T08:45:41;94905.25;;;18.14;51.84
62978;BME280;49073;42.352;23.808;2023-05-07T08:48:42;94896.38;;;18.17;52.48
62978;BME280;49073;42.352;23.808;2023-05-07T08:51:42;94900.28;;;18.13;50.67
62978;BME280;49073;42.352;23.808;2023-05-07T08:54:43;94900.16;;;18.27;49.71
62978;BME280;49073;42.352;23.808;2023-05-07T08:57:44;94906.97;;;18.43;50.38
62978;BME280;49073;42.352;23.808;2023-05-07T09:00:46;94902.41;;;18.36;51.88
62978;BME280;49073;42.352;23.808;2023-05-07T09:03:47;94902.84;;;18.27;52.99
62978;BME280;49073;42.352;23.808;2023-05-07T09:06:48;94900.81;;;18.42;51.89
62978;BME280;49073;42.352;23.808;2023-05-07T09:09:48;94899.59;;;18.47;51.40
62978;BME280;49073;42.352;23.808;2023-05-07T09:12:49;94901.34;;;18.23;51.23
62978;BME280;49073;42.352;23.808;2023-05-07T09:15:49;94899.28;;;18.41;50.95
62978;BME280;49073;42.352;23.808;2023-05-07T09:18:54;94904.09;;;19.03;47.42
62978;BME280;49073;42.352;23.808;2023-05-07T09:22:02;94899.69;;;19.20;46.55
62978;BME280;49073;42.352;23.808;2023-05-07T09:25:06;94898.53;;;19.52;48.98
62978;BME280;49073;42.352;23.808;2023-05-07T09:28:07;94889.38;;;20.01;46.78
62978;BME280;49073;42.352;23.808;2023-05-07T09:31:11;94894.06;;;19.97;48.58
62978;BME280;49073;42.352;23.808;2023-05-07T09:34:11;94891.19;;;20.11;49.55
62978;BME280;49073;42.352;23.808;2023-05-07T09:37:12;94889.06;;;20.46;49.43
62978;BME280;49073;42.352;23.808;2023-05-07T09:40:24;94883.69;;;20.67;47.09
62978;BME280;49073;42.352;23.808;2023-05-07T09:43:25;94886.66;;;20.52;43.18
62978;BME280;49073;42.352;23.808;2023-05-07T09:46:30;94878.06;;;20.33;44.86
62978;BME280;49073;42.352;23.808;2023-05-07T09:49:35;94879.34;;;19.70;48.79
62978;BME280;49073;42.352;23.808;2023-05-07T09:52:38;94871.31;;;19.36;50.48
62978;BME280;49073;42.352;23.808;2023-05-07T09:55:41;94870.59;;;19.62;49.62
62978;BME280;49073;42.352;23.808;2023-05-07T09:58:42;94869.22;;;20.05;49.33
62978;BME280;49073;42.352;23.808;2023-05-07T10:01:44;94867.94;;;19.86;47.76
62978;BME280;49073;42.352;23.808;2023-05-07T10:04:46;94867.88;;;19.62;47.93
62978;BME280;49073;42.352;23.808;2023-05-07T10:07:47;94865.63;;;19.57;48.93
62978;BME280;49073;42.352;23.808;2023-05-07T10:10:49;94863.66;;;19.61;49.95
62978;BME280;49073;42.352;23.808;2023-05-07T10:13:49;94871.44;;;19.83;50.68
62978;BME280;49073;42.352;23.808;2023-05-07T10:16:53;94867.06;;;20.44;50.60
62978;BME280;49073;42.352;23.808;2023-05-07T10:19:54;94851.84;;;20.74;48.53
62978;BME280;49073;42.352;23.808;2023-05-07T10:22:56;94873.53;;;20.50;48.88
62978;BME280;49073;42.352;23.808;2023-05-07T10:25:57;94860.63;;;20.58;48.58
62978;BME280;49073;42.352;23.808;2023-05-07T10:29:03;94862.50;;;20.85;48.79
62978;BME280;49073;42.352;23.808;2023-05-07T10:32:33;94881.41;;;20.41;47.77
62978;BME280;49073;42.352;23.808;2023-05-07T10:35:45;94863.94;;;20.46;48.71
62978;BME280;49073;42.352;23.808;2023-05-07T10:38:47;94865.91;;;21.10;46.98
62978;BME280;49073;42.352;23.808;2023-05-07T10:41:48;94862.91;;;20.84;47.28
62978;BME280;49073;42.352;23.808;2023-05-07T10:44:49;94859.75;;;20.41;48.07
62978;BME280;49073;42.352;23.808;2023-05-07T10:51:20;94848.47;;;20.90;46.39
62978;BME280;49073;42.352;23.808;2023-05-07T10:54:22;94840.81;;;21.26;44.56
62978;BME280;49073;42.352;23.808;2023-05-07T10:57:35;94842.72;;;21.45;44.98
62978;BME280;49073;42.352;23.808;2023-05-07T11:04:12;94833.50;;;21.43;47.26
62978;BME280;49073;42.352;23.808;2023-05-07T11:07:24;94836.63;;;21.41;43.08
62978;BME280;49073;42.352;23.808;2023-05-07T11:10:57;94845.34;;;21.12;44.48
62978;BME280;49073;42.352;23.808;2023-05-07T11:13:58;94842.16;;;21.54;44.50
62978;BME280;49073;42.352;23.808;2023-05-07T11:17:02;94837.97;;;21.70;43.88
62978;BME280;49073;42.352;23.808;2023-05-07T11:20:04;94832.09;;;21.55;42.46
62978;BME280;49073;42.352;23.808;2023-05-07T11:23:05;94831.25;;;21.58;43.00
62978;BME280;49073;42.352;23.808;2023-05-07T11:26:09;94831.59;;;21.60;42.11
62978;BME280;49073;42.352;23.808;2023-05-07T11:29:21;94840.22;;;21.91;42.69
62978;BME280;49073;42.352;23.808;2023-05-07T11:32:27;94839.94;;;22.02;42.07
62978;BME280;49073;42.352;23.808;2023-05-07T11:35:28;94843.44;;;21.86;42.31
62978;BME280;49073;42.352;23.808;2023-05-07T11:38:36;94838.88;;;21.63;41.60
62978;BME280;49073;42.352;23.808;2023-05-07T11:41:37;94840.81;;;21.62;40.91
62978;BME280;49073;42.352;23.808;2023-05-07T11:44:44;94842.50;;;20.99;43.28
62978;BME280;49073;42.352;23.808;2023-05-07T11:47:46;94837.72;;;20.87;45.05
62978;BME280;49073;42.352;23.808;2023-05-07T11:51:05;94837.06;;;20.79;43.62
62978;BME280;49073;42.352;23.808;2023-05-07T11:54:09;94835.50;;;20.82;43.88
62978;BME280;49073;42.352;23.808;2023-05-07T11:57:14;94834.56;;;21.29;45.25
62978;BME280;49073;42.352;23.808;2023-05-07T12:00:16;94823.34;;;21.47;42.81
62978;BME280;49073;42.352;23.808;2023-05-07T12:03:16;94832.00;;;21.21;43.01
62978;BME280;49073;42.352;23.808;2023-05-07T12:06:19;94832.47;;;20.76;43.99
62978;BME280;49073;42.352;23.808;2023-05-07T12:09:19;94818.06;;;21.03;43.25
62978;BME280;49073;42.352;23.808;2023-05-07T12:12:20;94823.41;;;21.43;41.99
62978;BME280;49073;42.352;23.808;2023-05-07T12:15:24;94832.06;;;21.91;42.73
62978;BME280;49073;42.352;23.808;2023-05-07T12:18:25;94820.94;;;22.19;42.47
62978;BME280;49073;42.352;23.808;2023-05-07T12:21:26;94823.25;;;22.66;41.09
62978;BME280;49073;42.352;23.808;2023-05-07T12:24:26;94822.72;;;21.76;40.08
62978;BME280;49073;42.352;23.808;2023-05-07T12:27:27;94814.69;;;21.89;40.24
62978;BME280;49073;42.352;23.808;2023-05-07T12:30:27;94814.03;;;22.31;41.47
62978;BME280;49073;42.352;23.808;2023-05-07T12:33:29;94799.41;;;22.12;40.91
62978;BME280;49073;42.352;23.808;2023-05-07T12:36:38;94804.13;;;22.41;41.45
62978;BME280;49073;42.352;23.808;2023-05-07T12:39:49;94793.66;;;22.56;39.82
62978;BME280;49073;42.352;23.808;2023-05-07T12:42:53;94795.56;;;22.42;40.00
62978;BME280;49073;42.352;23.808;2023-05-07T12:46:05;94805.75;;;22.21;40.96
62978;BME280;49073;42.352;23.808;2023-05-07T12:49:06;94794.63;;;22.32;41.75
62978;BME280;49073;42.352;23.808;2023-05-07T12:52:07;94785.19;;;21.74;41.73
62978;BME280;49073;42.352;23.808;2023-05-07T12:58:14;94779.78;;;21.01;42.15
62978;BME280;49073;42.352;23.808;2023-05-07T13:01:16;94774.03;;;20.99;42.67
62978;BME280;49073;42.352;23.808;2023-05-07T13:04:19;94779.06;;;20.76;44.67
62978;BME280;49073;42.352;23.808;2023-05-07T13:07:24;94776.47;;;21.10;42.75
62978;BME280;49073;42.352;23.808;2023-05-07T13:10:25;94784.41;;;21.90;42.90
62978;BME280;49073;42.352;23.808;2023-05-07T13:13:26;94762.56;;;21.81;42.20
62978;BME280;49073;42.352;23.808;2023-05-07T13:16:26;94762.41;;;20.98;43.08
62978;BME280;49073;42.352;23.808;2023-05-07T13:19:27;94766.97;;;21.38;43.74
62978;BME280;49073;42.352;23.808;2023-05-07T13:22:27;94758.22;;;21.67;42.44
62978;BME280;49073;42.352;23.808;2023-05-07T13:25:28;94767.63;;;21.79;41.81
62978;BME280;49073;42.352;23.808;2023-05-07T13:28:29;94760.56;;;22.15;42.16
62978;BME280;49073;42.352;23.808;2023-05-07T13:31:29;94757.78;;;22.02;40.64
62978;BME280;49073;42.352;23.808;2023-05-07T13:34:30;94751.59;;;21.85;41.50
62978;BME280;49073;42.352;23.808;2023-05-07T13:37:30;94746.31;;;22.11;41.01
62978;BME280;49073;42.352;23.808;2023-05-07T13:40:31;94759.41;;;22.29;41.82
62978;BME280;49073;42.352;23.808;2023-05-07T13:43:31;94752.56;;;22.24;39.73
62978;BME280;49073;42.352;23.808;2023-05-07T13:46:33;94743.50;;;22.14;42.39
62978;BME280;49073;42.352;23.808;2023-05-07T13:49:34;94752.25;;;22.05;41.08
62978;BME280;49073;42.352;23.808;2023-05-07T13:52:34;94755.69;;;21.76;40.77
62978;BME280;49073;42.352;23.808;2023-05-07T13:55:35;94764.13;;;22.12;42.36
62978;BME280;49073;42.352;23.808;2023-05-07T13:58:35;94762.47;;;22.31;40.64
62978;BME280;49073;42.352;23.808;2023-05-07T14:01:36;94768.84;;;22.24;40.32
62978;BME280;49073;42.352;23.808;2023-05-07T14:04:37;94763.16;;;22.18;40.22
62978;BME280;49073;42.352;23.808;2023-05-07T14:07:37;94763.88;;;22.06;41.23
62978;BME280;49073;42.352;23.808;2023-05-07T14:10:39;94773.09;;;22.25;40.42
62978;BME280;49073;42.352;23.808;2023-05-07T14:13:39;94769.56;;;21.95;40.64
62978;BME280;49073;42.352;23.808;2023-05-07T14:16:39;94756.53;;;21.73;41.80
62978;BME280;49073;42.352;23.808;2023-05-07T14:19:40;94768.94;;;21.54;41.16
62978;BME280;49073;42.352;23.808;2023-05-07T14:22:41;94765.94;;;21.85;43.11
62978;BME280;49073;42.352;23.808;2023-05-07T14:25:41;94764.75;;;21.86;40.48
62978;BME280;49073;42.352;23.808;2023-05-07T14:28:43;94753.75;;;21.40;41.65
62978;BME280;49073;42.352;23.808;2023-05-07T14:31:46;94770.06;;;21.57;42.04
62978;BME280;49073;42.352;23.808;2023-05-07T14:34:46;94763.69;;;21.47;41.56
62978;BME280;49073;42.352;23.808;2023-05-07T14:37:47;94765.88;;;21.35;41.77
62978;BME280;49073;42.352;23.808;2023-05-07T14:40:48;94766.78;;;21.29;41.66
62978;BME280;49073;42.352;23.808;2023-05-07T14:43:48;94763.00;;;21.43;42.31
62978;BME280;49073;42.352;23.808;2023-05-07T14:46:51;94757.13;;;21.28;42.15
62978;BME280;49073;42.352;23.808;2023-05-07T14:49:52;94749.03;;;21.07;42.20
62978;BME280;49073;42.352;23.808;2023-05-07T14:52:53;94741.78;;;20.84;43.40
62978;BME280;49073;42.352;23.808;2023-05-07T14:55:53;94754.97;;;20.82;43.23
62978;BME280;49073;42.352;23.808;2023-05-07T14:58:54;94754.25;;;20.78;43.10
62978;BME280;49073;42.352;23.808;2023-05-07T15:01:55;94760.94;;;20.73;43.30
62978;BME280;49073;42.352;23.808;2023-05-07T15:04:55;94762.63;;;20.67;43.84
62978;BME280;49073;42.352;23.808;2023-05-07T15:07:56;94762.53;;;20.71;43.94
62978;BME280;49073;42.352;23.808;2023-05-07T15:10:56;94752.53;;;20.68;44.08
62978;BME280;49073;42.352;23.808;2023-05-07T15:13:57;94752.13;;;20.69;43.67
62978;BME280;49073;42.352;23.808;2023-05-07T15:16:57;94741.91;;;20.57;44.06
62978;BME280;49073;42.352;23.808;2023-05-07T15:19:58;94747.66;;;20.59;44.86
62978;BME280;49073;42.352;23.808;2023-05-07T15:22:59;94739.81;;;20.44;43.14
62978;BME280;49073;42.352;23.808;2023-05-07T15:25:59;94743.28;;;20.25;43.07
62978;BME280;49073;42.352;23.808;2023-05-07T15:29:02;94744.13;;;20.22;44.05
62978;BME280;49073;42.352;23.808;2023-05-07T15:32:08;94742.38;;;20.11;44.05
62978;BME280;49073;42.352;23.808;2023-05-07T15:35:09;94744.72;;;20.09;43.79
62978;BME280;49073;42.352;23.808;2023-05-07T15:38:09;94749.38;;;20.09;44.59
62978;BME280;49073;42.352;23.808;2023-05-07T15:41:11;94757.88;;;19.83;45.36
62978;BME280;49073;42.352;23.808;2023-05-07T15:44:11;94750.50;;;19.60;45.17
62978;BME280;49073;42.352;23.808;2023-05-07T15:47:11;94739.38;;;19.30;45.28
62978;BME280;49073;42.352;23.808;2023-05-07T15:50:14;94751.31;;;19.33;45.54
62978;BME280;49073;42.352;23.808;2023-05-07T15:53:14;94750.88;;;19.34;45.66
62978;BME280;49073;42.352;23.808;2023-05-07T15:56:15;94742.03;;;19.34;46.47
62978;BME280;49073;42.352;23.808;2023-05-07T15:59:16;94755.81;;;19.40;46.98
62978;BME280;49073;42.352;23.808;2023-05-07T16:02:16;94755.06;;;19.39;46.08